Time;durP1;ratioP1;P1;durP2;ratioP2;P2;SDS_P1;SDS_P2;PMS_P1;PMS_P2;Temp;Humidity;BMP_temperature;BMP_pressure;BME280_temperature;BME280_humidity;BME280_pressure;Samples;Min_cycle;Max_cycle;Signal;HPM_P1;HPM_P2
2023/07/09 00:02:18;;;;;;;15.23;3.53;;;;;;;;;;5057202;28;20037;-59
2023/07/09 00:04:45;;;;;;;15.45;3.08;;;;;;;;;;5013231;28;20033;-59
2023/07/09 00:07:17;;;;;;;18.87;3.70;;;;;;;;;;5029157;28;20041;-59
2023/07/09 00:09:45;;;;;;;14.55;2.90;;;;;;;;;;5030261;28;20033;-59
2023/07/09 00:12:16;;;;;;;20.73;3.55;;;;;;;;;;5034916;28;20052;-59
2023/07/09 00:14:45;;;;;;;10.82;3.30;;;;;;;;;;5029036;28;20029;-59
2023/07/09 00:17:19;;;;;;;12.52;2.88;;;;;;;;;;5021712;28;20036;-58
2023/07/09 00:19:47;;;;;;;17.70;3.23;;;;;;;;;;5033829;28;20044;-59
2023/07/09 00:22:17;;;;;;;14.35;3.45;;;;;;;;;;5036893;28;20345;-58
2023/07/09 00:24:45;;;;;;;14.00;3.17;;;;;;;;;;5043504;28;20052;-59
2023/07/09 00:27:14;;;;;;;17.48;3.65;;;;;;;;;;5010377;28;20502;-59
2023/07/09 00:29:42;;;;;;;18.00;3.67;;;;;;;;;;5033445;28;20649;-58
2023/07/09 00:32:15;;;;;;;14.83;3.03;;;;;;;;;;5024320;28;20040;-59
2023/07/09 00:34:48;;;;;;;15.05;3.20;;;;;;;;;;5027556;28;20047;-59
2023/07/09 00:37:16;;;;;;;14.88;3.55;;;;;;;;;;5028786;28;20053;-59
2023/07/09 00:39:43;;;;;;;15.05;2.85;;;;;;;;;;5016811;28;20045;-59
2023/07/09 00:42:17;;;;;;;22.95;3.17;;;;;;;;;;5033819;28;20045;-57
2023/07/09 00:44:45;;;;;;;17.53;3.07;;;;;;;;;;5015176;28;20745;-60
2023/07/09 00:47:25;;;;;;;20.98;3.53;;;;;;;;;;5040022;28;20271;-59
2023/07/09 00:50:03;;;;;;;18.92;3.58;;;;;;;;;;5038108;28;20041;-59
2023/07/09 00:52:38;;;;;;;20.52;2.95;;;;;;;;;;5020248;28;20522;-59
2023/07/09 00:55:07;;;;;;;17.80;3.55;;;;;;;;;;5022315;28;20037;-59
2023/07/09 00:57:38;;;;;;;12.23;2.50;;;;;;;;;;5030975;28;20544;-59
2023/07/09 01:00:09;;;;;;;17.15;3.05;;;;;;;;;;5031531;28;20037;-60
2023/07/09 01:02:39;;;;;;;14.43;2.72;;;;;;;;;;5014395;28;20989;-59
2023/07/09 01:05:08;;;;;;;15.43;3.67;;;;;;;;;;5041746;28;20037;-59
2023/07/09 01:07:35;;;;;;;17.98;3.15;;;;;;;;;;5019672;28;20047;-59
2023/07/09 01:10:03;;;;;;;16.07;3.27;;;;;;;;;;5021075;28;20388;-60
2023/07/09 01:12:31;;;;;;;13.23;2.70;;;;;;;;;;5022822;28;20464;-60
2023/07/09 01:14:59;;;;;;;15.68;2.30;;;;;;;;;;5010652;28;20481;-59
2023/07/09 01:17:29;;;;;;;19.52;3.50;;;;;;;;;;5026982;28;20037;-59
2023/07/09 01:19:58;;;;;;;15.57;3.13;;;;;;;;;;5032837;28;20127;-59
2023/07/09 01:22:29;;;;;;;16.27;3.27;;;;;;;;;;5036221;28;20140;-59
2023/07/09 01:25:01;;;;;;;19.67;3.10;;;;;;;;;;5030487;28;20376;-59
2023/07/09 01:27:31;;;;;;;15.10;3.03;;;;;;;;;;5027384;28;20103;-59
2023/07/09 01:30:00;;;;;;;18.75;2.88;;;;;;;;;;5027598;28;20056;-59
2023/07/09 01:32:28;;;;;;;17.05;3.95;;;;;;;;;;5023889;28;20127;-59
2023/07/09 01:35:04;;;;;;;24.73;4.07;;;;;;;;;;5032815;28;20064;-60
2023/07/09 01:37:35;;;;;;;19.38;3.10;;;;;;;;;;5051519;28;20040;-58
2023/07/09 01:40:04;;;;;;;21.92;4.13;;;;;;;;;;5035436;28;20044;-60
2023/07/09 01:42:48;;;;;;;20.48;3.00;;;;;;;;;;5028766;28;20051;-59
2023/07/09 01:45:16;;;;;;;15.63;3.28;;;;;;;;;;5039296;28;20056;-59
2023/07/09 01:47:45;;;;;;;20.57;3.13;;;;;;;;;;5035006;28;20149;-59
2023/07/09 01:50:12;;;;;;;19.88;3.80;;;;;;;;;;5010133;28;20127;-58
2023/07/09 01:52:42;;;;;;;16.00;4.03;;;;;;;;;;5033455;28;20029;-59
2023/07/09 01:55:11;;;;;;;15.43;3.25;;;;;;;;;;5028547;28;20044;-59
2023/07/09 01:57:40;;;;;;;16.33;3.67;;;;;;;;;;5026799;28;20041;-59
2023/07/09 02:00:10;;;;;;;21.90;3.80;;;;;;;;;;5032389;28;20041;-59
2023/07/09 02:02:42;;;;;;;17.83;3.42;;;;;;;;;;5026990;28;20086;-59
2023/07/09 02:05:12;;;;;;;16.13;3.40;;;;;;;;;;5025973;28;20090;-59
2023/07/09 02:07:39;;;;;;;20.05;3.15;;;;;;;;;;5042709;28;20043;-59
2023/07/09 02:10:09;;;;;;;19.83;3.15;;;;;;;;;;5018527;28;20378;-59
2023/07/09 02:12:38;;;;;;;19.57;3.57;;;;;;;;;;5044762;28;20045;-59
2023/07/09 02:15:06;;;;;;;16.45;3.60;;;;;;;;;;5028573;28;20119;-59
2023/07/09 02:17:34;;;;;;;13.40;3.15;;;;;;;;;;5041465;28;20044;-60
2023/07/09 02:20:03;;;;;;;20.80;3.90;;;;;;;;;;5031686;28;20123;-59
2023/07/09 02:22:31;;;;;;;22.38;3.88;;;;;;;;;;5029662;28;20052;-59
2023/07/09 02:24:59;;;;;;;18.23;3.10;;;;;;;;;;5020140;28;20048;-59
2023/07/09 02:27:29;;;;;;;15.52;3.25;;;;;;;;;;5026520;28;20415;-59
2023/07/09 02:29:57;;;;;;;16.85;3.10;;;;;;;;;;5035825;28;20127;-59
2023/07/09 02:32:26;;;;;;;20.45;3.55;;;;;;;;;;5015478;28;20068;-59
2023/07/09 02:35:00;;;;;;;20.60;3.83;;;;;;;;;;5048037;28;20971;-59
2023/07/09 02:37:27;;;;;;;14.67;3.57;;;;;;;;;;5034215;28;20412;-59
2023/07/09 02:39:55;;;;;;;26.20;3.72;;;;;;;;;;5028265;28;20045;-59
2023/07/09 02:42:23;;;;;;;20.00;2.70;;;;;;;;;;5028827;28;20033;-59
2023/07/09 02:44:52;;;;;;;17.77;3.20;;;;;;;;;;5029037;28;20053;-59
2023/07/09 02:47:20;;;;;;;23.40;3.35;;;;;;;;;;5030332;28;20041;-61
2023/07/09 02:49:48;;;;;;;11.37;3.10;;;;;;;;;;5038362;28;20037;-61
2023/07/09 02:52:16;;;;;;;22.00;3.35;;;;;;;;;;5019758;28;20048;-58
2023/07/09 02:54:46;;;;;;;20.00;3.63;;;;;;;;;;5029092;28;20382;-62
2023/07/09 02:57:14;;;;;;;13.73;2.95;;;;;;;;;;5033888;28;20081;-58
2023/07/09 02:59:42;;;;;;;20.05;3.58;;;;;;;;;;5026868;28;20498;-60
2023/07/09 03:02:12;;;;;;;19.90;3.70;;;;;;;;;;5010700;28;20131;-61
2023/07/09 03:04:40;;;;;;;20.55;3.60;;;;;;;;;;5036915;28;20041;-61
2023/07/09 03:07:08;;;;;;;20.17;3.80;;;;;;;;;;5007555;28;20045;-58
2023/07/09 03:09:35;;;;;;;15.55;2.75;;;;;;;;;;5037120;28;20246;-60
2023/07/09 03:12:04;;;;;;;15.43;3.35;;;;;;;;;;5023527;28;20048;-60
2023/07/09 03:14:31;;;;;;;12.63;3.17;;;;;;;;;;5012308;28;20041;-57
2023/07/09 03:16:59;;;;;;;15.10;2.80;;;;;;;;;;5032172;28;20067;-59
2023/07/09 03:19:29;;;;;;;15.32;3.00;;;;;;;;;;5027150;28;20102;-59
2023/07/09 03:21:56;;;;;;;11.57;2.58;;;;;;;;;;5031365;28;20044;-58
2023/07/09 03:24:24;;;;;;;15.32;2.80;;;;;;;;;;5036382;28;20036;-58
2023/07/09 03:26:52;;;;;;;14.97;2.97;;;;;;;;;;5049398;28;20051;-57
2023/07/09 03:29:19;;;;;;;17.55;3.03;;;;;;;;;;5028819;28;20416;-58
2023/07/09 03:31:49;;;;;;;14.13;2.92;;;;;;;;;;5020755;28;20056;-59
2023/07/09 03:34:17;;;;;;;20.52;2.85;;;;;;;;;;5037969;28;20045;-59
2023/07/09 03:36:46;;;;;;;13.80;2.60;;;;;;;;;;5021207;28;20035;-59
2023/07/09 03:39:13;;;;;;;14.30;2.97;;;;;;;;;;5010670;28;20040;-59
2023/07/09 03:41:43;;;;;;;23.52;3.13;;;;;;;;;;5032742;28;20048;-59
2023/07/09 03:44:12;;;;;;;13.20;2.67;;;;;;;;;;5023635;28;21486;-58
2023/07/09 03:46:40;;;;;;;15.73;2.65;;;;;;;;;;5026759;28;20079;-59
2023/07/09 03:49:08;;;;;;;19.23;3.00;;;;;;;;;;5024283;28;21884;-59
2023/07/09 03:51:36;;;;;;;16.83;2.90;;;;;;;;;;5032718;28;20072;-59
2023/07/09 03:54:05;;;;;;;15.48;2.92;;;;;;;;;;5044259;28;20046;-60
2023/07/09 03:56:33;;;;;;;12.38;2.47;;;;;;;;;;5033079;28;20665;-58
2023/07/09 03:59:01;;;;;;;14.07;2.80;;;;;;;;;;5036247;28;20120;-59
2023/07/09 04:01:30;;;;;;;16.60;3.13;;;;;;;;;;5029136;28;20070;-60
2023/07/09 04:03:59;;;;;;;16.53;3.00;;;;;;;;;;5040939;28;20514;-59
2023/07/09 04:06:27;;;;;;;16.50;2.67;;;;;;;;;;5033750;28;20055;-59
2023/07/09 04:08:55;;;;;;;17.63;2.67;;;;;;;;;;5036625;28;20032;-59
2023/07/09 04:11:24;;;;;;;20.02;3.67;;;;;;;;;;5022537;28;20041;-59
2023/07/09 04:13:52;;;;;;;16.55;3.17;;;;;;;;;;5031707;28;20049;-59
2023/07/09 04:16:20;;;;;;;17.97;2.90;;;;;;;;;;5038663;28;20153;-59
2023/07/09 04:18:47;;;;;;;18.75;3.50;;;;;;;;;;5026657;28;20096;-59
2023/07/09 04:21:16;;;;;;;14.43;2.88;;;;;;;;;;5018084;28;20048;-58
2023/07/09 04:23:43;;;;;;;20.67;2.75;;;;;;;;;;5038441;28;20055;-60
2023/07/09 04:26:13;;;;;;;13.13;2.55;;;;;;;;;;5024018;28;20079;-61
2023/07/09 04:28:43;;;;;;;16.40;2.80;;;;;;;;;;5031557;28;20048;-61
2023/07/09 04:31:11;;;;;;;15.07;3.10;;;;;;;;;;5020986;28;20060;-60
2023/07/09 04:33:38;;;;;;;18.08;2.85;;;;;;;;;;5039726;28;20118;-60
2023/07/09 04:36:08;;;;;;;18.77;3.05;;;;;;;;;;5038333;28;20048;-61
2023/07/09 04:38:36;;;;;;;21.92;2.30;;;;;;;;;;5015130;28;20672;-60
2023/07/09 04:41:07;;;;;;;16.13;2.80;;;;;;;;;;5029567;28;20045;-60
2023/07/09 04:43:34;;;;;;;16.02;2.70;;;;;;;;;;5036282;28;20044;-60
2023/07/09 04:46:03;;;;;;;14.63;2.50;;;;;;;;;;5036246;28;20045;-60
2023/07/09 04:48:32;;;;;;;22.92;3.50;;;;;;;;;;5021324;28;20045;-58
2023/07/09 04:51:00;;;;;;;13.38;3.40;;;;;;;;;;5026821;28;20067;-60
2023/07/09 04:53:27;;;;;;;15.80;3.10;;;;;;;;;;5016656;28;20072;-60
2023/07/09 04:55:57;;;;;;;14.57;3.70;;;;;;;;;;5031915;28;20045;-60
2023/07/09 04:58:25;;;;;;;19.15;3.08;;;;;;;;;;5026988;28;20095;-60
2023/07/09 05:00:53;;;;;;;17.83;3.15;;;;;;;;;;5014445;28;20041;-60
2023/07/09 05:03:23;;;;;;;13.68;3.05;;;;;;;;;;5040685;28;20045;-60
2023/07/09 05:05:50;;;;;;;17.00;2.90;;;;;;;;;;5030025;28;20059;-60
2023/07/09 05:08:18;;;;;;;16.02;2.80;;;;;;;;;;5037740;28;20055;-60
2023/07/09 05:10:47;;;;;;;16.65;2.55;;;;;;;;;;5030355;28;20196;-60
2023/07/09 05:13:15;;;;;;;14.40;3.05;;;;;;;;;;5040133;28;20811;-61
2023/07/09 05:15:44;;;;;;;15.60;3.00;;;;;;;;;;5026758;28;20424;-61
2023/07/09 05:18:12;;;;;;;14.53;2.93;;;;;;;;;;5023685;28;20499;-59
2023/07/09 05:20:42;;;;;;;15.38;3.47;;;;;;;;;;5020452;28;20040;-61
2023/07/09 05:23:09;;;;;;;13.93;2.35;;;;;;;;;;5018066;28;20037;-60
2023/07/09 05:25:38;;;;;;;11.95;2.65;;;;;;;;;;5037630;28;20037;-61
2023/07/09 05:28:06;;;;;;;19.70;3.42;;;;;;;;;;5030387;28;20039;-60
2023/07/09 05:30:33;;;;;;;13.17;2.53;;;;;;;;;;5021440;28;20045;-60
2023/07/09 05:33:03;;;;;;;17.30;2.63;;;;;;;;;;5026570;28;20044;-60
2023/07/09 05:35:31;;;;;;;17.77;3.10;;;;;;;;;;5030016;28;20045;-60
2023/07/09 05:38:00;;;;;;;18.33;2.50;;;;;;;;;;5024416;28;20041;-60
2023/07/09 05:40:28;;;;;;;20.35;3.30;;;;;;;;;;5031075;28;20041;-60
2023/07/09 05:42:55;;;;;;;15.87;2.90;;;;;;;;;;5025260;28;20033;-60
2023/07/09 05:45:23;;;;;;;13.73;2.45;;;;;;;;;;5031242;28;20488;-60
2023/07/09 05:47:54;;;;;;;17.80;3.17;;;;;;;;;;5032529;28;20569;-60
2023/07/09 05:50:22;;;;;;;12.95;3.17;;;;;;;;;;5027126;28;20131;-60
2023/07/09 05:52:50;;;;;;;12.23;2.03;;;;;;;;;;5032167;28;20040;-60
2023/07/09 05:55:19;;;;;;;7.60;1.77;;;;;;;;;;5038168;28;20479;-60
2023/07/09 05:57:47;;;;;;;18.75;3.47;;;;;;;;;;5025962;28;20049;-59
2023/07/09 06:00:15;;;;;;;17.52;2.28;;;;;;;;;;5042403;28;20044;-60
2023/07/09 06:02:43;;;;;;;15.15;3.00;;;;;;;;;;5027405;28;20688;-60
2023/07/09 06:05:11;;;;;;;16.98;2.70;;;;;;;;;;5037135;28;20855;-60
2023/07/09 06:07:39;;;;;;;18.17;3.10;;;;;;;;;;5023149;28;20040;-60
2023/07/09 06:10:08;;;;;;;11.95;2.20;;;;;;;;;;5051170;28;20037;-60
2023/07/09 06:12:37;;;;;;;11.85;2.60;;;;;;;;;;5031944;28;20047;-59
2023/07/09 06:15:05;;;;;;;14.32;2.33;;;;;;;;;;5045102;28;20397;-60
2023/07/09 06:17:33;;;;;;;14.80;2.25;;;;;;;;;;5016340;28;20588;-59
2023/07/09 06:20:01;;;;;;;17.03;2.93;;;;;;;;;;5042092;28;20048;-60
2023/07/09 06:22:28;;;;;;;16.60;3.58;;;;;;;;;;5024149;28;20073;-60
2023/07/09 06:24:56;;;;;;;14.88;2.50;;;;;;;;;;5009883;28;20029;-60
2023/07/09 06:27:24;;;;;;;12.13;2.38;;;;;;;;;;5038306;28;20052;-59
2023/07/09 06:29:53;;;;;;;11.48;2.22;;;;;;;;;;5034937;28;20049;-60
2023/07/09 06:32:21;;;;;;;16.10;3.17;;;;;;;;;;5038983;28;20045;-60
2023/07/09 06:34:49;;;;;;;12.65;2.28;;;;;;;;;;5027189;28;20124;-60
2023/07/09 06:37:17;;;;;;;17.90;2.90;;;;;;;;;;5027943;28;20051;-60
2023/07/09 06:39:45;;;;;;;15.57;3.35;;;;;;;;;;5013573;28;20040;-60
2023/07/09 06:42:13;;;;;;;13.75;2.78;;;;;;;;;;5036281;28;20051;-60
2023/07/09 06:44:40;;;;;;;12.00;2.27;;;;;;;;;;5036029;28;20613;-60
2023/07/09 06:47:09;;;;;;;19.00;3.17;;;;;;;;;;5031443;28;20033;-60
2023/07/09 06:49:37;;;;;;;22.33;3.60;;;;;;;;;;5029024;28;20033;-59
2023/07/09 06:52:05;;;;;;;15.75;2.72;;;;;;;;;;5037589;28;20037;-60
2023/07/09 06:54:33;;;;;;;19.42;3.13;;;;;;;;;;5012536;28;20055;-60
2023/07/09 06:57:01;;;;;;;17.43;3.37;;;;;;;;;;5032692;28;20418;-60
2023/07/09 06:59:29;;;;;;;17.50;2.70;;;;;;;;;;5024653;28;20399;-60
2023/07/09 07:01:56;;;;;;;18.88;4.18;;;;;;;;;;5043806;28;20075;-60
2023/07/09 07:04:27;;;;;;;16.58;3.25;;;;;;;;;;5038094;28;20156;-60
2023/07/09 07:06:56;;;;;;;14.55;2.67;;;;;;;;;;5042448;28;20106;-59
2023/07/09 07:09:24;;;;;;;11.07;2.23;;;;;;;;;;5027004;28;20048;-60
2023/07/09 07:11:52;;;;;;;14.18;2.47;;;;;;;;;;5030197;28;20032;-59
2023/07/09 07:14:19;;;;;;;10.77;2.60;;;;;;;;;;5018687;28;20033;-59
2023/07/09 07:16:47;;;;;;;18.35;3.90;;;;;;;;;;5033074;28;20047;-60
2023/07/09 07:19:15;;;;;;;14.80;2.38;;;;;;;;;;5027345;28;20033;-60
2023/07/09 07:21:44;;;;;;;11.47;2.70;;;;;;;;;;5026640;28;20567;-60
2023/07/09 07:24:13;;;;;;;12.20;3.03;;;;;;;;;;5039909;28;20386;-59
2023/07/09 07:26:41;;;;;;;15.15;2.30;;;;;;;;;;5033885;28;20029;-60
2023/07/09 07:29:09;;;;;;;16.80;2.88;;;;;;;;;;5037511;28;20119;-60
2023/07/09 07:31:37;;;;;;;12.27;2.63;;;;;;;;;;5012513;28;20048;-60
2023/07/09 07:34:05;;;;;;;12.50;2.03;;;;;;;;;;5021637;28;20509;-60
2023/07/09 07:36:32;;;;;;;18.70;3.03;;;;;;;;;;5025315;28;20702;-60
2023/07/09 07:39:07;;;;;;;14.50;2.35;;;;;;;;;;5032843;28;20056;-60
2023/07/09 07:41:35;;;;;;;13.68;2.45;;;;;;;;;;5025259;28;20280;-60
2023/07/09 07:44:03;;;;;;;16.08;2.65;;;;;;;;;;5033224;28;20041;-60
2023/07/09 07:46:32;;;;;;;15.07;2.63;;;;;;;;;;5008511;28;20041;-60
2023/07/09 07:49:00;;;;;;;19.23;2.47;;;;;;;;;;5034375;28;20087;-60
2023/07/09 07:51:27;;;;;;;13.65;2.33;;;;;;;;;;5033514;28;20033;-60
2023/07/09 07:53:56;;;;;;;17.35;3.53;;;;;;;;;;5029025;28;20033;-60
2023/07/09 07:56:25;;;;;;;15.32;3.42;;;;;;;;;;5014255;28;20091;-59
2023/07/09 07:58:53;;;;;;;12.67;3.47;;;;;;;;;;5044876;28;20043;-59
2023/07/09 08:01:21;;;;;;;15.20;3.03;;;;;;;;;;5025305;28;20115;-60
2023/07/09 08:03:49;;;;;;;14.30;2.42;;;;;;;;;;5022444;28;20127;-61
2023/07/09 08:06:17;;;;;;;17.58;3.17;;;;;;;;;;5030617;28;20040;-61
2023/07/09 08:08:44;;;;;;;14.57;2.15;;;;;;;;;;5022161;28;20080;-61
2023/07/09 08:11:12;;;;;;;14.83;2.80;;;;;;;;;;5035543;28;20064;-60
2023/07/09 08:13:41;;;;;;;14.00;3.20;;;;;;;;;;5006881;28;20395;-60
2023/07/09 08:16:11;;;;;;;16.15;2.13;;;;;;;;;;5030653;28;20037;-61
2023/07/09 08:18:39;;;;;;;13.38;2.63;;;;;;;;;;5018670;28;20033;-60
2023/07/09 08:21:13;;;;;;;13.10;2.47;;;;;;;;;;5034131;28;20029;-59
2023/07/09 08:23:42;;;;;;;12.73;2.83;;;;;;;;;;5021250;28;20457;-59
2023/07/09 08:26:09;;;;;;;14.32;2.60;;;;;;;;;;5018801;28;20048;-60
2023/07/09 08:28:38;;;;;;;11.48;2.28;;;;;;;;;;5028570;28;20041;-59
2023/07/09 08:31:07;;;;;;;12.80;2.07;;;;;;;;;;4668665;28;10000371;-60
2023/07/09 08:33:35;;;;;;;12.48;2.60;;;;;;;;;;5024150;28;20092;-59
2023/07/09 08:36:03;;;;;;;10.18;2.28;;;;;;;;;;5025094;28;20263;-59
2023/07/09 08:38:30;;;;;;;9.50;1.95;;;;;;;;;;5021612;28;20055;-60
2023/07/09 08:41:00;;;;;;;10.52;2.22;;;;;;;;;;5024330;28;20411;-59
2023/07/09 08:43:33;;;;;;;10.80;2.27;;;;;;;;;;5005624;28;20047;-59
2023/07/09 08:46:04;;;;;;;13.40;2.60;;;;;;;;;;5032092;28;20045;-59
2023/07/09 08:48:34;;;;;;;12.27;2.03;;;;;;;;;;5013541;28;20079;-56
2023/07/09 08:51:07;;;;;;;10.43;2.33;;;;;;;;;;5027369;28;20048;-59
2023/07/09 08:53:42;;;;;;;9.10;1.53;;;;;;;;;;4329556;28;10000132;-59
2023/07/09 08:56:10;;;;;;;14.57;2.33;;;;;;;;;;5020115;28;20090;-59
2023/07/09 08:58:38;;;;;;;9.47;1.50;;;;;;;;;;5039099;28;20036;-58
2023/07/09 09:01:11;;;;;;;14.00;2.05;;;;;;;;;;5033097;28;20630;-59
2023/07/09 09:03:45;;;;;;;7.03;1.58;;;;;;;;;;5026843;28;20067;-59
2023/07/09 09:06:14;;;;;;;6.97;1.90;;;;;;;;;;5033703;28;20037;-59
2023/07/09 09:08:48;;;;;;;8.90;1.67;;;;;;;;;;5036120;28;20372;-60
2023/07/09 09:11:20;;;;;;;8.83;1.90;;;;;;;;;;5018206;28;20530;-58
2023/07/09 09:13:50;;;;;;;15.18;2.50;;;;;;;;;;5023934;28;20037;-58
2023/07/09 09:16:27;;;;;;;8.43;1.35;;;;;;;;;;5027608;28;20380;-58
2023/07/09 09:18:58;;;;;;;9.15;1.40;;;;;;;;;;5021225;28;20039;-58
2023/07/09 09:21:28;;;;;;;4.72;1.10;;;;;;;;;;5025296;28;20568;-58
2023/07/09 09:23:59;;;;;;;6.30;1.70;;;;;;;;;;5037349;28;20040;-59
2023/07/09 09:26:29;;;;;;;7.00;1.67;;;;;;;;;;5020102;28;20551;-59
2023/07/09 09:28:57;;;;;;;7.68;1.50;;;;;;;;;;5035648;28;20072;-58
2023/07/09 09:31:25;;;;;;;10.90;1.42;;;;;;;;;;5026715;28;20056;-59
2023/07/09 09:33:53;;;;;;;9.07;1.65;;;;;;;;;;5024149;28;20064;-59
2023/07/09 09:36:24;;;;;;;8.03;1.50;;;;;;;;;;5018578;28;20041;-59
2023/07/09 09:38:52;;;;;;;6.45;1.55;;;;;;;;;;5032633;28;20659;-55
2023/07/09 09:41:21;;;;;;;9.85;1.75;;;;;;;;;;5030531;28;20043;-59
2023/07/09 09:43:50;;;;;;;8.02;1.52;;;;;;;;;;5028793;28;20139;-59
2023/07/09 09:46:18;;;;;;;6.63;1.77;;;;;;;;;;5013399;28;20608;-59
2023/07/09 09:48:47;;;;;;;6.63;1.67;;;;;;;;;;5036507;28;20043;-58
2023/07/09 09:51:16;;;;;;;6.00;1.48;;;;;;;;;;5035255;28;20134;-59
2023/07/09 09:53:48;;;;;;;9.02;1.60;;;;;;;;;;5034464;28;20051;-59
2023/07/09 09:56:19;;;;;;;9.05;1.73;;;;;;;;;;5027147;28;20037;-59
2023/07/09 09:58:47;;;;;;;9.65;2.20;;;;;;;;;;5034880;28;20037;-60
2023/07/09 10:01:16;;;;;;;9.53;2.17;;;;;;;;;;5018488;28;20037;-59
2023/07/09 10:03:45;;;;;;;7.75;1.83;;;;;;;;;;5038190;28;20044;-59
2023/07/09 10:06:15;;;;;;;11.77;2.33;;;;;;;;;;5024616;28;20041;-59
2023/07/09 10:08:51;;;;;;;8.10;1.50;;;;;;;;;;5034400;28;20290;-59
2023/07/09 10:11:26;;;;;;;11.80;1.85;;;;;;;;;;5043929;28;20045;-60
2023/07/09 10:13:56;;;;;;;7.50;1.50;;;;;;;;;;5034646;28;20056;-59
2023/07/09 10:16:29;;;;;;;14.27;1.60;;;;;;;;;;5023332;28;20240;-60
2023/07/09 10:19:16;;;;;;;11.45;1.88;;;;;;;;;;5036731;28;21080;-60
2023/07/09 10:21:46;;;;;;;11.38;1.73;;;;;;;;;;5026613;28;20037;-60
2023/07/09 10:24:23;;;;;;;10.63;2.25;;;;;;;;;;5025641;28;20056;-60
2023/07/09 10:26:54;;;;;;;6.67;1.67;;;;;;;;;;5015333;28;20048;-60
2023/07/09 10:29:31;;;;;;;10.82;1.73;;;;;;;;;;5036522;28;20499;-59
2023/07/09 10:32:02;;;;;;;8.95;2.00;;;;;;;;;;5034382;28;20063;-59
2023/07/09 10:34:33;;;;;;;9.68;1.67;;;;;;;;;;5026268;28;20056;-59
2023/07/09 10:37:09;;;;;;;10.63;2.00;;;;;;;;;;5033392;28;20075;-59
2023/07/09 10:39:41;;;;;;;7.23;2.13;;;;;;;;;;5023328;28;20041;-60
2023/07/09 10:42:14;;;;;;;8.05;1.33;;;;;;;;;;5032183;28;20045;-59
2023/07/09 10:44:44;;;;;;;7.80;1.40;;;;;;;;;;5022894;28;20044;-59
2023/07/09 10:47:14;;;;;;;7.18;1.73;;;;;;;;;;5037591;28;20063;-59
2023/07/09 10:49:43;;;;;;;8.07;1.52;;;;;;;;;;5015008;28;20044;-59
2023/07/09 10:52:14;;;;;;;6.13;1.33;;;;;;;;;;5035735;28;20558;-59
2023/07/09 10:54:46;;;;;;;11.70;2.25;;;;;;;;;;4674948;28;10000592;-59
2023/07/09 10:57:26;;;;;;;10.13;2.10;;;;;;;;;;5028692;28;20124;-58
2023/07/09 10:59:55;;;;;;;9.88;2.10;;;;;;;;;;5023290;28;20036;-58
2023/07/09 11:02:25;;;;;;;8.20;2.10;;;;;;;;;;5033761;28;20037;-58
2023/07/09 11:04:54;;;;;;;9.23;2.17;;;;;;;;;;5020482;28;20033;-58
2023/07/09 11:07:26;;;;;;;10.18;1.60;;;;;;;;;;5035227;28;20112;-59
2023/07/09 11:09:56;;;;;;;9.30;1.38;;;;;;;;;;5034786;28;20041;-59
2023/07/09 11:12:29;;;;;;;7.03;1.45;;;;;;;;;;5032533;28;20059;-59
2023/07/09 11:14:58;;;;;;;8.13;1.70;;;;;;;;;;5030910;28;20039;-59
2023/07/09 11:17:28;;;;;;;8.57;2.55;;;;;;;;;;5024726;28;20530;-59
2023/07/09 11:19:56;;;;;;;10.13;2.20;;;;;;;;;;5033546;28;20087;-58
2023/07/09 11:22:26;;;;;;;7.38;2.10;;;;;;;;;;5021803;28;20479;-58
2023/07/09 11:25:05;;;;;;;7.40;1.92;;;;;;;;;;5030185;28;20362;-58
2023/07/09 11:27:34;;;;;;;10.90;2.40;;;;;;;;;;5028213;28;20164;-58
2023/07/09 11:30:05;;;;;;;8.60;2.17;;;;;;;;;;5025389;28;20043;-60
2023/07/09 11:32:53;;;;;;;7.22;1.63;;;;;;;;;;5033592;28;20371;-59
2023/07/09 11:35:22;;;;;;;8.45;2.00;;;;;;;;;;5023195;28;20617;-59
2023/07/09 11:37:49;;;;;;;8.07;1.65;;;;;;;;;;5025087;28;20045;-59
2023/07/09 11:40:19;;;;;;;9.67;1.97;;;;;;;;;;5028010;28;20060;-59
2023/07/09 11:42:52;;;;;;;8.27;2.28;;;;;;;;;;5036456;28;20475;-59
2023/07/09 11:45:21;;;;;;;10.35;2.45;;;;;;;;;;5030923;28;20051;-59
2023/07/09 11:47:53;;;;;;;8.98;1.85;;;;;;;;;;5023548;28;20124;-60
2023/07/09 11:50:25;;;;;;;7.85;1.88;;;;;;;;;;5034851;28;20446;-59
2023/07/09 11:52:54;;;;;;;13.40;2.70;;;;;;;;;;5013978;28;20064;-58
2023/07/09 11:55:25;;;;;;;8.95;2.30;;;;;;;;;;5033313;28;20047;-60
2023/07/09 11:57:58;;;;;;;8.45;2.28;;;;;;;;;;5020800;28;20037;-59
2023/07/09 12:00:26;;;;;;;7.57;1.83;;;;;;;;;;5037331;28;20044;-60
2023/07/09 12:02:54;;;;;;;11.38;2.97;;;;;;;;;;5015980;28;20126;-60
2023/07/09 12:05:27;;;;;;;9.87;2.67;;;;;;;;;;5030804;28;20503;-60
2023/07/09 12:07:55;;;;;;;10.40;2.60;;;;;;;;;;5026708;28;20044;-59
2023/07/09 12:10:25;;;;;;;8.23;2.58;;;;;;;;;;5028305;28;20059;-59
2023/07/09 12:12:58;;;;;;;13.38;2.92;;;;;;;;;;5025964;28;20212;-59
2023/07/09 12:15:29;;;;;;;11.30;2.60;;;;;;;;;;5029525;28;20060;-59
2023/07/09 12:17:59;;;;;;;10.43;2.83;;;;;;;;;;5036356;28;20036;-60
2023/07/09 12:20:30;;;;;;;7.72;2.08;;;;;;;;;;5016896;28;20124;-59
2023/07/09 12:22:58;;;;;;;9.10;2.00;;;;;;;;;;5021828;28;20094;-59
2023/07/09 12:25:26;;;;;;;8.27;1.98;;;;;;;;;;5017189;28;20056;-60
2023/07/09 12:27:54;;;;;;;10.35;2.42;;;;;;;;;;5008293;28;20045;-59
2023/07/09 12:30:23;;;;;;;10.47;2.50;;;;;;;;;;5036680;28;20131;-59
2023/07/09 12:32:52;;;;;;;7.72;2.00;;;;;;;;;;5024347;28;20051;-60
2023/07/09 12:35:20;;;;;;;9.65;1.90;;;;;;;;;;5023051;28;20067;-59
2023/07/09 12:37:49;;;;;;;7.30;1.60;;;;;;;;;;5026567;28;20091;-60
2023/07/09 12:40:22;;;;;;;9.00;2.08;;;;;;;;;;5024094;28;20442;-59
2023/07/09 12:42:49;;;;;;;6.90;1.70;;;;;;;;;;5027212;28;20641;-60
2023/07/09 12:45:19;;;;;;;9.00;1.55;;;;;;;;;;5036156;28;20083;-60
2023/07/09 12:47:50;;;;;;;6.82;1.77;;;;;;;;;;5024118;28;20053;-59
2023/07/09 12:50:30;;;;;;;9.13;1.77;;;;;;;;;;5032486;28;20040;-59
2023/07/09 12:53:02;;;;;;;6.65;1.52;;;;;;;;;;5036447;28;20040;-59
2023/07/09 12:55:31;;;;;;;11.07;1.90;;;;;;;;;;5029094;28;20040;-59
2023/07/09 12:58:00;;;;;;;9.15;2.78;;;;;;;;;;5020669;28;20463;-59
2023/07/09 13:00:30;;;;;;;6.90;1.73;;;;;;;;;;4332684;28;10000665;-59
2023/07/09 13:03:00;;;;;;;6.85;1.83;;;;;;;;;;5025079;28;20045;-59
2023/07/09 13:05:28;;;;;;;10.18;2.03;;;;;;;;;;5035434;28;20071;-59
2023/07/09 13:08:00;;;;;;;8.63;2.10;;;;;;;;;;5024326;28;20047;-59
2023/07/09 13:10:29;;;;;;;14.48;2.35;;;;;;;;;;5018396;28;20069;-59
2023/07/09 13:13:01;;;;;;;11.38;2.60;;;;;;;;;;5035774;28;20056;-59
2023/07/09 13:15:30;;;;;;;8.20;2.15;;;;;;;;;;5028555;28;20639;-60
2023/07/09 13:18:01;;;;;;;13.40;2.33;;;;;;;;;;5037582;28;20041;-60
2023/07/09 13:20:29;;;;;;;6.40;1.90;;;;;;;;;;5044928;28;20550;-59
2023/07/09 13:22:57;;;;;;;8.00;1.98;;;;;;;;;;5017376;28;20045;-59
2023/07/09 13:25:25;;;;;;;5.93;1.90;;;;;;;;;;5031908;28;20045;-59
2023/07/09 13:28:15;;;;;;;9.60;2.05;;;;;;;;;;5025732;28;20040;-59
2023/07/09 13:30:43;;;;;;;11.15;2.42;;;;;;;;;;5045160;28;20410;-59
2023/07/09 13:33:12;;;;;;;10.23;2.40;;;;;;;;;;5028780;28;20467;-59
2023/07/09 13:35:40;;;;;;;12.65;2.70;;;;;;;;;;5031616;28;20048;-59
2023/07/09 13:38:14;;;;;;;6.45;2.10;;;;;;;;;;5027116;28;20052;-59
2023/07/09 13:40:44;;;;;;;9.50;2.22;;;;;;;;;;5033873;28;20255;-59
2023/07/09 13:43:13;;;;;;;12.65;2.35;;;;;;;;;;5034618;28;20051;-59
2023/07/09 13:45:41;;;;;;;9.53;2.30;;;;;;;;;;5034429;28;20080;-59
2023/07/09 13:48:13;;;;;;;10.00;2.15;;;;;;;;;;5015995;28;20037;-59
2023/07/09 13:50:42;;;;;;;8.30;2.10;;;;;;;;;;5028071;28;20041;-60
2023/07/09 13:53:14;;;;;;;8.68;2.00;;;;;;;;;;5030110;28;20059;-58
2023/07/09 13:55:42;;;;;;;8.30;2.40;;;;;;;;;;5039342;28;20051;-59
2023/07/09 13:58:11;;;;;;;9.20;2.13;;;;;;;;;;5012460;28;20050;-59
2023/07/09 14:00:40;;;;;;;7.38;2.35;;;;;;;;;;5033063;28;20410;-59
2023/07/09 14:03:13;;;;;;;10.60;2.40;;;;;;;;;;5023009;28;20040;-59
2023/07/09 14:05:43;;;;;;;7.80;2.22;;;;;;;;;;5036004;28;20041;-58
2023/07/09 14:08:11;;;;;;;6.70;2.17;;;;;;;;;;5028158;28;20037;-58
2023/07/09 14:10:41;;;;;;;7.90;1.77;;;;;;;;;;5020890;28;20541;-58
2023/07/09 14:13:13;;;;;;;11.15;4.30;;;;;;;;;;5031125;28;20044;-58
2023/07/09 14:15:41;;;;;;;8.20;2.92;;;;;;;;;;5014707;28;20407;-58
2023/07/09 14:18:12;;;;;;;7.82;2.42;;;;;;;;;;5028199;28;20044;-58
2023/07/09 14:20:40;;;;;;;7.78;2.28;;;;;;;;;;5025092;28;20040;-58
2023/07/09 14:23:11;;;;;;;7.37;2.17;;;;;;;;;;5024062;28;20045;-58
2023/07/09 14:25:38;;;;;;;8.98;2.70;;;;;;;;;;5026294;28;20917;-59
2023/07/09 14:28:09;;;;;;;7.32;2.30;;;;;;;;;;5020839;28;20582;-58
2023/07/09 14:30:37;;;;;;;10.52;2.15;;;;;;;;;;5027932;28;20068;-58
2023/07/09 14:33:06;;;;;;;7.75;1.98;;;;;;;;;;5026116;28;20609;-58
2023/07/09 14:35:35;;;;;;;7.60;1.80;;;;;;;;;;5038901;28;20048;-58
2023/07/09 14:38:05;;;;;;;8.95;1.90;;;;;;;;;;5034608;28;20542;-59
2023/07/09 14:40:34;;;;;;;12.25;1.85;;;;;;;;;;5021815;28;20098;-58
2023/07/09 14:43:02;;;;;;;9.23;2.15;;;;;;;;;;5031433;28;21149;-59
2023/07/09 14:45:31;;;;;;;6.00;2.20;;;;;;;;;;5033798;28;20845;-59
2023/07/09 14:47:59;;;;;;;9.20;1.70;;;;;;;;;;5018670;28;20838;-60